createdAt,value
2024-02-15T00:02:12.202Z,6.63
2024-02-15T00:04:43.926Z,4.90
2024-02-15T00:07:14.843Z,5.25
2024-02-15T00:09:45.399Z,6.90
2024-02-15T00:12:16.199Z,6.00
2024-02-15T00:14:46.960Z,4.13
2024-02-15T00:17:20.212Z,5.47
2024-02-15T00:19:50.789Z,4.88
2024-02-15T00:22:22.751Z,7.00
2024-02-15T00:24:53.348Z,7.45
2024-02-15T00:27:24.198Z,4.40
2024-02-15T00:29:54.992Z,6.35
2024-02-15T00:32:28.349Z,6.18
2024-02-15T00:34:59.281Z,4.10
2024-02-15T00:37:30.344Z,4.22
2024-02-15T00:40:00.951Z,7.25
2024-02-15T00:42:33.067Z,5.82
2024-02-15T00:45:03.778Z,5.25
2024-02-15T00:47:37.472Z,6.53
2024-02-15T00:50:09.267Z,6.30
2024-02-15T00:52:40.077Z,4.80
2024-02-15T00:55:11.014Z,6.55
2024-02-15T00:57:41.609Z,4.82
2024-02-15T01:00:14.525Z,5.75
2024-02-15T01:02:47.865Z,4.90
2024-02-15T01:05:20.070Z,4.35
2024-02-15T01:07:50.622Z,5.53
2024-02-15T01:10:21.766Z,4.15
2024-02-15T01:12:52.809Z,6.70
2024-02-15T01:15:23.659Z,5.30
2024-02-15T01:17:57.103Z,6.00
2024-02-15T01:20:28.021Z,5.68
2024-02-15T01:22:58.856Z,4.15
2024-02-15T01:25:29.553Z,7.45
2024-02-15T01:28:00.100Z,5.35
2024-02-15T01:30:30.847Z,4.28
2024-02-15T01:33:04.187Z,6.10
2024-02-15T01:35:34.880Z,5.10
2024-02-15T01:38:05.655Z,5.43
2024-02-15T01:40:36.511Z,4.78
2024-02-15T01:43:07.424Z,6.38
2024-02-15T01:45:38.029Z,4.93
2024-02-15T01:48:12.622Z,4.78
2024-02-15T01:50:44.257Z,5.90
2024-02-15T01:53:15.545Z,6.57
2024-02-15T01:55:46.316Z,5.88
2024-02-15T01:58:16.909Z,5.35
2024-02-15T02:00:51.496Z,5.22
2024-02-15T02:03:25.878Z,7.30
2024-02-15T02:05:57.376Z,4.97
2024-02-15T02:08:28.308Z,4.45
2024-02-15T02:10:59.058Z,4.50
2024-02-15T02:13:31.477Z,6.28
2024-02-15T02:16:02.676Z,4.45
2024-02-15T02:18:37.036Z,4.25
2024-02-15T02:21:08.039Z,5.45
2024-02-15T02:23:38.744Z,6.13
2024-02-15T02:26:12.469Z,4.10
2024-02-15T02:28:43.526Z,5.00
2024-02-15T02:31:14.504Z,4.18
2024-02-15T02:33:46.972Z,5.10
2024-02-15T02:36:18.335Z,5.82
2024-02-15T02:38:51.415Z,5.90
2024-02-15T02:41:25.188Z,4.07
2024-02-15T02:43:56.008Z,4.50
2024-02-15T02:46:27.012Z,5.28
2024-02-15T02:48:57.984Z,3.65
2024-02-15T02:51:28.663Z,3.85
2024-02-15T02:53:59.295Z,6.03
2024-02-15T02:56:32.503Z,3.90
2024-02-15T02:59:03.154Z,5.65
2024-02-15T03:01:33.709Z,4.07
2024-02-15T03:04:04.473Z,4.97
2024-02-15T03:06:35.274Z,6.15
2024-02-15T03:09:08.800Z,3.38
2024-02-15T03:11:42.517Z,8.18
2024-02-15T03:14:14.056Z,4.97
2024-02-15T03:16:44.677Z,3.60
2024-02-15T03:19:15.342Z,4.35
2024-02-15T03:21:48.094Z,4.93
2024-02-15T03:24:18.781Z,4.15
2024-02-15T03:26:53.496Z,3.50
2024-02-15T03:29:24.542Z,4.10
2024-02-15T03:31:57.057Z,3.25
2024-02-15T03:34:27.975Z,4.05
2024-02-15T03:36:58.891Z,3.72
2024-02-15T03:39:29.524Z,3.58
2024-02-15T03:42:03.269Z,4.40
2024-02-15T03:44:33.985Z,5.13
2024-02-15T03:47:06.555Z,3.28
2024-02-15T03:49:37.298Z,3.55
2024-02-15T03:52:08.407Z,4.05
2024-02-15T03:54:39.068Z,4.03
2024-02-15T03:57:13.273Z,4.80
2024-02-15T03:59:44.225Z,5.68
2024-02-15T04:02:16.053Z,6.45
2024-02-15T04:04:48.638Z,4.13
2024-02-15T04:07:19.362Z,3.70
2024-02-15T04:09:50.096Z,2.35
2024-02-15T04:12:23.549Z,4.20
2024-02-15T04:14:56.075Z,3.17
2024-02-15T04:17:26.930Z,3.13
2024-02-15T04:19:57.528Z,3.90
2024-02-15T04:22:28.290Z,3.53
2024-02-15T04:24:58.951Z,4.20
2024-02-15T04:27:32.700Z,2.75
2024-02-15T04:30:03.931Z,3.30
2024-02-15T04:32:35.570Z,5.60
2024-02-15T04:35:09.028Z,3.40
2024-02-15T04:37:42.122Z,3.85
2024-02-15T04:40:15.417Z,4.00
2024-02-15T04:42:48.795Z,2.75
2024-02-15T04:45:20.565Z,4.30
2024-02-15T04:48:03.326Z,2.97
2024-02-15T04:50:34.147Z,4.45
2024-02-15T04:53:04.891Z,3.72
2024-02-15T04:55:36.817Z,3.17
2024-02-15T04:58:12.061Z,2.97
2024-02-15T05:00:43.580Z,3.13
2024-02-15T05:03:14.843Z,3.78
2024-02-15T05:05:46.449Z,3.42
2024-02-15T05:08:17.131Z,3.05
2024-02-15T05:10:47.868Z,4.75
2024-02-15T05:13:21.192Z,3.67
2024-02-15T05:15:51.808Z,3.45
2024-02-15T05:18:22.501Z,2.50
2024-02-15T05:20:53.582Z,3.53
2024-02-15T05:23:24.191Z,3.15
2024-02-15T05:25:55.594Z,3.75
2024-02-15T05:28:28.869Z,3.72
2024-02-15T05:31:13.705Z,4.00
2024-02-15T05:33:45.891Z,4.85
2024-02-15T05:36:16.913Z,4.20
2024-02-15T05:38:48.067Z,2.92
2024-02-15T05:41:18.852Z,4.50
2024-02-15T05:43:54.359Z,5.13
2024-02-15T05:46:25.345Z,3.08
2024-02-15T05:48:56.289Z,3.67
2024-02-15T05:51:27.458Z,4.03
2024-02-15T05:54:00.743Z,3.65
2024-02-15T05:56:31.457Z,3.35
2024-02-15T05:59:11.731Z,6.00
2024-02-15T06:01:43.394Z,2.42
2024-02-15T06:04:14.394Z,3.42
2024-02-15T06:06:50.564Z,3.00
2024-02-15T06:09:23.634Z,5.13
2024-02-15T06:11:56.935Z,3.17
2024-02-15T06:14:30.227Z,5.90
2024-02-15T06:17:00.841Z,8.55
2024-02-15T06:19:31.620Z,6.65
2024-02-15T06:22:02.441Z,7.25
2024-02-15T06:24:33.057Z,11.20
2024-02-15T06:27:03.704Z,6.30
2024-02-15T06:29:49.646Z,5.22
2024-02-15T06:32:32.878Z,6.72
2024-02-15T06:35:15.967Z,8.90
2024-02-15T06:37:59.025Z,11.20
2024-02-15T06:40:30.234Z,7.60
2024-02-15T06:43:00.826Z,7.88
2024-02-15T06:45:36.990Z,9.30
2024-02-15T06:48:09.055Z,6.30
2024-02-15T06:50:40.833Z,10.43
2024-02-15T06:53:12.082Z,6.35
2024-02-15T06:55:43.510Z,8.25
2024-02-15T06:58:15.240Z,9.20
2024-02-15T07:00:49.801Z,13.63
2024-02-15T07:03:24.005Z,10.18
2024-02-15T07:05:54.849Z,10.00
2024-02-15T07:08:27.052Z,9.98
2024-02-15T07:10:57.614Z,15.63
2024-02-15T07:13:28.500Z,10.73
2024-02-15T07:16:01.796Z,11.70
2024-02-15T07:18:32.811Z,6.60
2024-02-15T07:21:05.639Z,11.32
2024-02-15T07:23:38.676Z,11.00
2024-02-15T07:26:09.572Z,8.90
2024-02-15T07:28:40.408Z,10.32
2024-02-15T07:31:18.347Z,8.68
2024-02-15T07:33:49.236Z,14.20
2024-02-15T07:36:23.497Z,16.25
2024-02-15T07:38:54.497Z,12.55
2024-02-15T07:41:25.540Z,7.88
2024-02-15T07:43:56.982Z,11.57
2024-02-15T07:46:30.454Z,11.40
2024-02-15T07:49:01.596Z,9.18
2024-02-15T07:51:32.419Z,10.95
2024-02-15T07:54:03.182Z,11.38
2024-02-15T07:56:33.942Z,9.90
2024-02-15T07:59:04.677Z,7.32
2024-02-15T08:01:37.931Z,11.75
2024-02-15T08:04:09.544Z,9.00
2024-02-15T08:06:40.225Z,10.48
2024-02-15T08:09:15.297Z,5.15
2024-02-15T08:11:46.341Z,11.15
2024-02-15T08:14:17.261Z,10.45
2024-02-15T08:16:50.507Z,11.98
2024-02-15T08:19:21.280Z,7.63
2024-02-15T08:21:52.346Z,10.55
2024-02-15T08:24:23.109Z,8.15
2024-02-15T08:26:55.115Z,11.20
2024-02-15T08:29:25.733Z,6.93
2024-02-15T08:31:59.816Z,9.13
2024-02-15T08:34:30.667Z,11.00
2024-02-15T08:37:01.280Z,12.18
2024-02-15T08:39:32.839Z,11.52
2024-02-15T08:42:05.929Z,7.28
2024-02-15T08:44:37.881Z,10.68
2024-02-15T08:47:11.380Z,7.50
2024-02-15T08:49:42.797Z,11.25
2024-02-15T08:52:13.725Z,8.65
2024-02-15T08:54:44.405Z,9.85
2024-02-15T08:57:15.604Z,9.95
2024-02-15T08:59:46.586Z,8.55
2024-02-15T09:02:19.941Z,7.90
2024-02-15T09:04:50.862Z,12.75
2024-02-15T09:07:22.539Z,11.18
2024-02-15T09:09:53.830Z,9.40
2024-02-15T09:12:24.768Z,9.45
2024-02-15T09:14:56.043Z,8.20
2024-02-15T09:17:29.423Z,9.10
2024-02-15T09:20:00.271Z,8.20
2024-02-15T09:22:31.168Z,11.80
2024-02-15T09:25:02.203Z,10.52
2024-02-15T09:27:32.908Z,11.75
2024-02-15T09:30:03.670Z,8.38
2024-02-15T09:32:36.977Z,8.40
2024-02-15T09:35:09.489Z,10.07
2024-02-15T09:37:40.630Z,8.27
2024-02-15T09:40:13.539Z,6.13
2024-02-15T09:42:45.743Z,7.65
2024-02-15T09:45:18.828Z,12.40
2024-02-15T09:47:54.391Z,8.93
2024-02-15T09:50:25.764Z,9.68
2024-02-15T09:52:56.880Z,9.63
2024-02-15T09:55:27.513Z,9.90
2024-02-15T09:57:59.997Z,9.90
2024-02-15T10:00:30.722Z,6.82
2024-02-15T10:03:05.488Z,8.63
2024-02-15T10:05:36.562Z,8.32
2024-02-15T10:08:08.802Z,6.40
2024-02-15T10:10:39.730Z,7.30
2024-02-15T10:13:10.332Z,6.82
2024-02-15T10:15:42.189Z,7.72
2024-02-15T10:18:15.970Z,6.63
2024-02-15T10:20:47.762Z,8.63
2024-02-15T10:23:20.244Z,7.03
2024-02-15T10:25:51.074Z,7.03
2024-02-15T10:28:25.332Z,5.90
2024-02-15T10:30:56.913Z,6.88
2024-02-15T10:33:35.856Z,10.13
2024-02-15T10:36:11.149Z,6.50
2024-02-15T10:38:42.177Z,6.97
2024-02-15T10:41:13.338Z,6.65
2024-02-15T10:43:46.322Z,5.25
2024-02-15T10:46:18.834Z,7.30
2024-02-15T10:48:52.185Z,5.75
2024-02-15T10:51:23.294Z,10.15
2024-02-15T10:54:00.393Z,9.77
2024-02-15T10:56:31.885Z,6.20
2024-02-15T10:59:06.265Z,8.55
2024-02-15T11:01:38.960Z,8.10
2024-02-15T11:04:15.847Z,9.55
2024-02-15T11:06:47.768Z,8.57
2024-02-15T11:09:18.392Z,6.45
2024-02-15T11:11:52.265Z,5.40
2024-02-15T11:14:31.112Z,6.10
2024-02-15T11:17:03.863Z,5.32
2024-02-15T11:19:50.094Z,6.03
2024-02-15T11:22:20.925Z,7.53
2024-02-15T11:24:49.412Z,8.45
2024-02-15T11:27:30.910Z,6.90
2024-02-15T11:30:05.421Z,7.70
2024-02-15T11:32:41.567Z,6.15
2024-02-15T11:35:16.365Z,5.45
2024-02-15T11:38:05.949Z,11.60
2024-02-15T11:41:00.860Z,7.28
2024-02-15T11:43:51.458Z,7.20
2024-02-15T11:46:22.819Z,6.22
2024-02-15T11:48:53.949Z,6.22
2024-02-15T11:51:38.391Z,6.95
2024-02-15T11:54:13.293Z,7.43
2024-02-15T11:56:56.125Z,5.50
2024-02-15T11:59:44.391Z,7.07
2024-02-15T12:02:27.284Z,5.22
2024-02-15T12:05:10.403Z,7.40
2024-02-15T12:07:56.037Z,4.60
2024-02-15T12:10:39.170Z,5.53
2024-02-15T12:13:22.537Z,6.60
2024-02-15T12:16:15.023Z,5.22
2024-02-15T12:18:54.181Z,4.43
2024-02-15T12:21:28.211Z,4.95
2024-02-15T12:24:01.914Z,8.43
2024-02-15T12:26:36.267Z,6.65
2024-02-15T12:29:09.236Z,7.43
2024-02-15T12:31:42.000Z,3.55
2024-02-15T12:34:13.766Z,6.03
2024-02-15T12:36:44.331Z,8.50
2024-02-15T12:39:18.503Z,4.93
2024-02-15T12:41:54.127Z,5.13
2024-02-15T12:44:26.295Z,3.22
2024-02-15T12:47:01.529Z,4.45
2024-02-15T12:49:36.421Z,5.30
2024-02-15T12:52:22.019Z,5.25
2024-02-15T12:55:11.087Z,7.57
2024-02-15T12:57:44.328Z,5.82
2024-02-15T13:00:19.581Z,6.35
2024-02-15T13:02:51.169Z,5.90
2024-02-15T13:05:23.318Z,7.32
2024-02-15T13:07:56.312Z,3.88
2024-02-15T13:10:29.682Z,8.45
2024-02-15T13:13:00.523Z,4.20
2024-02-15T13:15:34.808Z,5.65
2024-02-15T13:18:07.214Z,7.15
2024-02-15T13:20:39.211Z,5.38
2024-02-15T13:23:16.402Z,2.97
2024-02-15T13:25:50.335Z,5.80
2024-02-15T13:28:21.120Z,5.20
2024-02-15T13:30:55.661Z,7.72
2024-02-15T13:33:28.472Z,6.47
2024-02-15T13:35:59.366Z,3.45
2024-02-15T13:38:29.989Z,7.88
2024-02-15T13:41:04.631Z,5.63
2024-02-15T13:43:35.836Z,5.20
2024-02-15T13:46:06.398Z,2.60
2024-02-15T13:48:37.791Z,5.35
2024-02-15T13:51:10.682Z,4.07
2024-02-15T13:53:41.559Z,3.92
2024-02-15T13:56:14.748Z,3.00
2024-02-15T13:58:45.276Z,5.75
2024-02-15T14:01:15.928Z,3.58
2024-02-15T14:03:47.301Z,5.95
2024-02-15T14:06:18.500Z,4.35
2024-02-15T14:08:49.286Z,6.57
2024-02-15T14:11:22.646Z,4.65
2024-02-15T14:13:59.590Z,4.93
2024-02-15T14:16:33.040Z,3.97
2024-02-15T14:19:07.835Z,4.22
2024-02-15T14:21:40.062Z,3.55
2024-02-15T14:24:12.537Z,5.75
2024-02-15T14:26:45.755Z,4.95
2024-02-15T14:29:17.257Z,2.33
2024-02-15T14:32:00.240Z,4.80
2024-02-15T14:34:30.896Z,3.50
2024-02-15T14:37:02.579Z,4.47
2024-02-15T14:39:33.087Z,4.07
2024-02-15T14:42:18.473Z,6.32
2024-02-15T14:44:49.531Z,3.28
2024-02-15T14:47:20.028Z,6.28
2024-02-15T14:49:51.387Z,7.13
2024-02-15T14:52:22.124Z,6.60
2024-02-15T14:54:53.334Z,5.53
2024-02-15T14:57:28.769Z,3.50
2024-02-15T14:59:59.727Z,3.97
2024-02-15T15:02:30.390Z,5.95
2024-02-15T15:05:16.275Z,3.08
2024-02-15T15:07:59.202Z,6.00
2024-02-15T15:10:42.495Z,4.72
2024-02-15T15:13:16.038Z,2.92
2024-02-15T15:15:48.154Z,3.90
2024-02-15T15:18:19.200Z,3.80
2024-02-15T15:20:50.010Z,5.05
2024-02-15T15:23:20.755Z,2.25
2024-02-15T15:25:51.794Z,6.05
2024-02-15T15:28:25.007Z,3.13
2024-02-15T15:30:56.180Z,4.53
2024-02-15T15:33:26.861Z,4.53
2024-02-15T15:35:57.557Z,3.78
2024-02-15T15:38:28.105Z,4.70
2024-02-15T15:40:59.479Z,4.93
2024-02-15T15:43:32.671Z,3.72
2024-02-15T15:46:04.803Z,2.05
2024-02-15T15:48:35.959Z,2.72
2024-02-15T15:51:07.746Z,3.95
2024-02-15T15:53:40.636Z,4.10
2024-02-15T15:56:11.670Z,2.58
2024-02-15T15:58:46.871Z,4.80
2024-02-15T16:01:18.743Z,6.47
2024-02-15T16:03:53.436Z,2.15
2024-02-15T16:06:24.040Z,2.85
2024-02-15T16:08:54.668Z,2.80
2024-02-15T16:11:25.246Z,2.53
2024-02-15T16:13:58.645Z,1.65
2024-02-15T16:16:29.197Z,3.22
2024-02-15T16:19:00.184Z,2.85
2024-02-15T16:21:30.993Z,3.50
2024-02-15T16:24:02.102Z,5.03
2024-02-15T16:26:32.701Z,2.88
2024-02-15T16:29:06.033Z,4.45
2024-02-15T16:31:36.885Z,3.10
2024-02-15T16:34:08.525Z,9.18
2024-02-15T16:36:40.379Z,10.75
2024-02-15T16:39:13.349Z,8.88
2024-02-15T16:41:43.942Z,13.32
2024-02-15T16:44:17.078Z,9.57
2024-02-15T16:46:48.134Z,12.00
2024-02-15T16:49:19.099Z,13.68
2024-02-15T16:51:50.545Z,15.68
2024-02-15T16:54:22.148Z,15.48
2024-02-15T16:57:04.460Z,11.55
2024-02-15T16:59:42.023Z,13.60
2024-02-15T17:02:12.717Z,13.15
2024-02-15T17:04:43.463Z,15.35
2024-02-15T17:07:14.090Z,22.98
2024-02-15T17:09:44.973Z,16.08
2024-02-15T17:12:15.617Z,24.20
2024-02-15T17:14:49.018Z,14.20
2024-02-15T17:17:19.751Z,9.35
2024-02-15T17:19:52.845Z,17.15
2024-02-15T17:22:24.272Z,16.75
2024-02-15T17:24:54.924Z,11.60
2024-02-15T17:27:25.670Z,13.02
2024-02-15T17:29:58.848Z,13.43
2024-02-15T17:32:29.449Z,15.35
2024-02-15T17:35:00.068Z,17.48
2024-02-15T17:37:30.840Z,10.90
2024-02-15T17:40:01.380Z,14.95
2024-02-15T17:42:32.194Z,14.70
2024-02-15T17:45:05.562Z,16.50
2024-02-15T17:47:36.114Z,6.07
2024-02-15T17:50:09.460Z,19.63
2024-02-15T17:52:40.223Z,12.07
2024-02-15T17:55:12.863Z,13.93
2024-02-15T17:57:43.700Z,12.00
2024-02-15T18:00:21.646Z,15.68
2024-02-15T18:02:52.946Z,10.07
2024-02-15T18:05:23.985Z,11.32
2024-02-15T18:07:54.704Z,17.50
2024-02-15T18:10:25.649Z,11.43
2024-02-15T18:12:56.131Z,12.52
2024-02-15T18:15:34.473Z,12.55
2024-02-15T18:18:05.012Z,11.02
2024-02-15T18:20:35.619Z,10.43
2024-02-15T18:23:06.651Z,10.50
2024-02-15T18:25:38.253Z,7.93
2024-02-15T18:28:09.756Z,8.82
2024-02-15T18:30:44.092Z,10.95
2024-02-15T18:33:16.420Z,8.95
2024-02-15T18:35:48.596Z,8.73
2024-02-15T18:38:19.658Z,5.72
2024-02-15T18:40:50.943Z,9.88
2024-02-15T18:43:21.596Z,10.05
2024-02-15T18:45:54.890Z,12.70
2024-02-15T18:48:25.576Z,12.70
2024-02-15T18:50:56.354Z,9.65
2024-02-15T18:53:27.060Z,10.98
2024-02-15T18:55:57.797Z,11.00
2024-02-15T18:58:29.028Z,9.68
2024-02-15T19:01:03.267Z,14.13
2024-02-15T19:03:34.236Z,10.25
2024-02-15T19:06:05.090Z,10.65
2024-02-15T19:08:35.990Z,7.60
2024-02-15T19:11:07.487Z,9.40
2024-02-15T19:13:38.968Z,11.00
2024-02-15T19:16:13.687Z,8.93
2024-02-15T19:18:45.262Z,7.57
2024-02-15T19:21:16.461Z,9.02
2024-02-15T19:23:49.726Z,10.05
2024-02-15T19:26:20.394Z,25.70
2024-02-15T19:28:52.049Z,7.88
2024-02-15T19:31:26.033Z,5.25
2024-02-15T19:33:57.539Z,6.80
2024-02-15T19:36:28.337Z,8.13
2024-02-15T19:38:59.182Z,6.70
2024-02-15T19:41:29.889Z,8.38
2024-02-15T19:44:00.597Z,7.25
2024-02-15T19:46:40.053Z,6.65
2024-02-15T19:49:12.545Z,6.85
2024-02-15T19:51:43.243Z,10.75
2024-02-15T19:54:14.019Z,4.75
2024-02-15T19:56:45.948Z,12.18
2024-02-15T19:59:16.644Z,7.38
2024-02-15T20:01:49.744Z,9.73
2024-02-15T20:04:20.292Z,7.68
2024-02-15T20:06:51.342Z,6.07
2024-02-15T20:09:28.266Z,12.80
2024-02-15T20:12:02.699Z,9.68
2024-02-15T20:14:33.305Z,3.75
2024-02-15T20:17:06.598Z,8.50
2024-02-15T20:19:37.151Z,6.70
2024-02-15T20:22:08.483Z,4.60
2024-02-15T20:24:40.011Z,10.27
2024-02-15T20:27:11.849Z,7.15
2024-02-15T20:29:43.300Z,6.45
2024-02-15T20:32:19.998Z,8.93
2024-02-15T20:34:50.775Z,7.43
2024-02-15T20:37:21.837Z,7.95
2024-02-15T20:39:55.015Z,6.75
2024-02-15T20:42:25.776Z,8.70
2024-02-15T20:44:56.457Z,6.93
2024-02-15T20:47:31.151Z,8.88
2024-02-15T20:50:02.260Z,7.90
2024-02-15T20:52:32.910Z,9.77
2024-02-15T20:55:03.469Z,7.20
2024-02-15T20:57:34.069Z,8.20
2024-02-15T21:00:05.871Z,6.25
2024-02-15T21:02:40.403Z,7.53
2024-02-15T21:05:12.265Z,7.05
2024-02-15T21:07:42.886Z,10.80
2024-02-15T21:10:16.235Z,5.13
2024-02-15T21:12:46.946Z,6.68
2024-02-15T21:15:17.896Z,5.70
2024-02-15T21:17:51.185Z,4.85
2024-02-15T21:20:21.993Z,9.65
2024-02-15T21:22:56.974Z,6.68
2024-02-15T21:25:29.509Z,9.77
2024-02-15T21:28:00.156Z,8.75
2024-02-15T21:30:32.392Z,6.82
2024-02-15T21:33:06.998Z,7.07
2024-02-15T21:35:38.035Z,9.68
2024-02-15T21:38:08.816Z,5.47
2024-02-15T21:40:39.340Z,10.13
2024-02-15T21:43:10.979Z,7.82
2024-02-15T21:45:41.637Z,5.63
2024-02-15T21:48:15.012Z,10.10
2024-02-15T21:50:46.395Z,5.47
2024-02-15T21:53:17.222Z,5.05
2024-02-15T21:55:48.977Z,11.65
2024-02-15T21:58:19.583Z,7.13
2024-02-15T22:00:50.355Z,9.80
2024-02-15T22:03:23.552Z,7.55
2024-02-15T22:05:54.303Z,6.47
2024-02-15T22:08:24.915Z,5.55
2024-02-15T22:10:55.529Z,8.38
2024-02-15T22:13:26.038Z,5.20
2024-02-15T22:15:57.584Z,5.10
2024-02-15T22:18:30.983Z,7.15
2024-02-15T22:21:02.981Z,7.43
2024-02-15T22:23:33.477Z,8.90
2024-02-15T22:26:04.196Z,4.97
2024-02-15T22:28:34.912Z,4.57
2024-02-15T22:31:05.572Z,5.40
2024-02-15T22:33:41.926Z,7.28
2024-02-15T22:36:12.961Z,3.33
2024-02-15T22:38:43.544Z,7.35
2024-02-15T22:41:14.427Z,6.00
2024-02-15T22:43:45.878Z,9.10
2024-02-15T22:46:16.695Z,6.13
2024-02-15T22:48:50.089Z,6.10
2024-02-15T22:51:21.476Z,6.68
2024-02-15T22:53:52.068Z,6.95
2024-02-15T22:56:23.679Z,5.43
2024-02-15T22:58:54.515Z,8.68
2024-02-15T23:01:25.767Z,4.72
2024-02-15T23:03:59.105Z,5.25
2024-02-15T23:06:29.774Z,6.68
2024-02-15T23:09:00.524Z,3.90
2024-02-15T23:11:32.777Z,4.25
2024-02-15T23:14:03.511Z,3.55
2024-02-15T23:16:34.020Z,4.75
2024-02-15T23:19:07.345Z,6.15
2024-02-15T23:21:38.063Z,4.95
2024-02-15T23:24:09.057Z,4.40
2024-02-15T23:26:40.870Z,4.95
2024-02-15T23:29:12.001Z,5.50
2024-02-15T23:31:43.308Z,7.13
2024-02-15T23:34:16.690Z,3.15
2024-02-15T23:36:59.908Z,5.45
2024-02-15T23:39:59.850Z,7.07
2024-02-15T23:42:31.242Z,4.55
2024-02-15T23:45:02.784Z,4.95
2024-02-15T23:47:33.389Z,5.05
2024-02-15T23:50:06.747Z,6.43
2024-02-15T23:52:39.001Z,4.22
2024-02-15T23:55:10.774Z,8.30
2024-02-15T23:57:41.944Z,3.70
